Time;durP1;ratioP1;P1;durP2;ratioP2;P2;SDS_P1;SDS_P2;PMS_P1;PMS_P2;Temp;Humidity;BMP_temperature;BMP_pressure;BME280_temperature;BME280_humidity;BME280_pressure;Samples;Min_cycle;Max_cycle;Signal;HPM_P1;HPM_P2
2023/07/05 03:00:53;;;;;;;4.82;3.65;;;25.30;39.10;;;;;;5960759;23;45829;-64
2023/07/05 03:03:20;;;;;;;7.30;4.05;;;25.20;39.20;;;;;;4937205;28;45358;-66
2023/07/05 03:05:57;;;;;;;4.75;3.67;;;25.20;39.00;;;;;;4974052;28;45764;-65
2023/07/05 03:08:22;;;;;;;6.15;4.07;;;25.20;39.10;;;;;;4979265;28;45057;-67
2023/07/05 03:10:49;;;;;;;7.22;4.10;;;25.20;39.00;;;;;;4976016;28;45627;-66
2023/07/05 03:13:15;;;;;;;5.18;4.18;;;25.20;39.00;;;;;;4977692;28;45270;-66
2023/07/05 03:15:40;;;;;;;6.45;3.90;;;25.20;39.00;;;;;;4985548;28;45326;-67
2023/07/05 03:18:06;;;;;;;5.40;4.28;;;25.20;39.00;;;;;;4977987;28;44770;-67
2023/07/05 03:20:31;;;;;;;6.18;3.60;;;25.20;39.00;;;;;;4991421;28;45525;-67
2023/07/05 03:22:57;;;;;;;6.28;4.05;;;25.20;39.10;;;;;;4985518;28;45481;-67
2023/07/05 03:25:22;;;;;;;5.43;4.20;;;25.20;39.20;;;;;;4994873;28;45626;-67
2023/07/05 03:27:48;;;;;;;5.47;3.67;;;25.20;39.20;;;;;;4965782;28;45618;-66
2023/07/05 03:30:13;;;;;;;4.95;3.72;;;25.20;39.20;;;;;;4975626;28;45528;-65
2023/07/05 03:32:43;;;;;;;6.47;4.10;;;25.20;39.20;;;;;;4994054;28;45506;-68
2023/07/05 03:35:09;;;;;;;4.90;3.95;;;25.10;39.20;;;;;;4991456;28;45640;-67
2023/07/05 03:37:34;;;;;;;5.80;4.10;;;25.10;39.30;;;;;;4991092;28;45734;-66
2023/07/05 03:40:00;;;;;;;5.78;4.03;;;25.10;39.40;;;;;;4983936;28;45357;-67
2023/07/05 03:42:25;;;;;;;8.10;4.18;;;25.00;39.50;;;;;;4992498;28;45291;-67
2023/07/05 03:44:51;;;;;;;7.25;3.50;;;25.00;39.70;;;;;;5002079;28;45189;-68
2023/07/05 03:47:16;;;;;;;5.10;3.50;;;24.90;40.10;;;;;;4983941;28;45904;-68
2023/07/05 03:49:42;;;;;;;5.00;3.28;;;24.80;40.40;;;;;;4998369;28;45552;-69
2023/07/05 03:52:07;;;;;;;6.30;2.90;;;24.80;40.60;;;;;;4997046;28;45502;-65
2023/07/05 03:54:33;;;;;;;6.78;3.00;;;24.80;41.00;;;;;;4977095;28;45425;-64
2023/07/05 03:56:58;;;;;;;4.82;3.25;;;24.70;41.20;;;;;;4965251;28;45368;-67
2023/07/05 03:59:24;;;;;;;3.83;2.78;;;24.70;41.50;;;;;;4995737;28;45716;-66
2023/07/05 04:01:49;;;;;;;3.17;2.63;;;24.70;41.70;;;;;;4985569;28;45579;-68
2023/07/05 04:04:15;;;;;;;6.07;2.72;;;24.70;41.80;;;;;;4980798;28;45251;-66
2023/07/05 04:06:40;;;;;;;6.10;2.47;;;24.60;41.90;;;;;;4988477;28;45641;-66
2023/07/05 04:09:06;;;;;;;4.38;2.70;;;24.60;42.00;;;;;;4976718;28;45309;-66
2023/07/05 04:11:31;;;;;;;4.07;2.47;;;24.60;42.10;;;;;;4987766;28;45798;-66
2023/07/05 04:13:57;;;;;;;2.90;2.45;;;24.60;42.20;;;;;;4973106;28;45255;-67
2023/07/05 04:16:24;;;;;;;3.35;2.30;;;24.60;42.40;;;;;;4985519;28;45525;-68
2023/07/05 04:18:51;;;;;;;7.10;2.42;;;24.60;42.40;;;;;;4974159;28;45182;-67
2023/07/05 04:21:16;;;;;;;4.43;2.25;;;24.60;42.70;;;;;;4954554;28;45544;-65
2023/07/05 04:23:42;;;;;;;4.20;2.50;;;24.50;42.80;;;;;;4994595;28;45255;-64
2023/07/05 04:26:12;;;;;;;6.20;2.67;;;24.60;42.90;;;;;;4984511;28;45326;-67
2023/07/05 04:28:37;;;;;;;5.35;2.80;;;24.60;43.20;;;;;;4994183;28;45204;-66
2023/07/05 04:31:03;;;;;;;4.65;2.88;;;24.50;43.20;;;;;;4983232;28;45972;-63
2023/07/05 04:33:29;;;;;;;5.93;2.35;;;24.50;43.40;;;;;;4975964;28;47182;-66
2023/07/05 04:36:00;;;;;;;4.35;2.75;;;24.50;43.60;;;;;;4971792;28;45336;-66
2023/07/05 04:38:25;;;;;;;2.60;2.15;;;24.50;44.30;;;;;;4978850;28;45014;-66
2023/07/05 04:40:51;;;;;;;2.95;2.00;;;24.50;44.30;;;;;;4965749;28;45833;-67
2023/07/05 04:43:17;;;;;;;3.10;2.20;;;24.50;44.50;;;;;;4993111;28;45438;-67
2023/07/05 04:45:53;;;;;;;4.45;2.20;;;24.60;44.80;;;;;;4969256;28;46033;-66
2023/07/05 04:48:18;;;;;;;5.65;2.22;;;24.60;45.60;;;;;;4983029;28;45614;-67
2023/07/05 04:50:44;;;;;;;2.65;1.63;;;24.60;44.90;;;;;;4958743;28;45321;-65
2023/07/05 04:53:10;;;;;;;2.25;1.77;;;24.60;44.90;;;;;;4972123;28;46359;-67
2023/07/05 04:55:35;;;;;;;6.18;2.63;;;24.60;45.10;;;;;;4983149;28;45630;-66
2023/07/05 04:58:03;;;;;;;2.65;1.95;;;24.60;44.80;;;;;;4996665;28;45303;-67
2023/07/05 05:00:29;;;;;;;5.45;2.20;;;24.70;45.10;;;;;;4982265;28;45650;-67
2023/07/05 05:02:55;;;;;;;5.88;2.40;;;24.70;45.40;;;;;;4991202;28;46301;-65
2023/07/05 05:05:20;;;;;;;2.85;2.13;;;24.70;45.40;;;;;;4983886;28;45577;-66
2023/07/05 05:07:46;;;;;;;7.53;2.42;;;24.70;45.50;;;;;;4993998;28;45465;-65
2023/07/05 05:10:12;;;;;;;3.97;2.20;;;24.70;45.50;;;;;;4991849;28;45270;-65
2023/07/05 05:12:37;;;;;;;5.32;2.20;;;24.70;45.80;;;;;;4940973;28;46243;-65
2023/07/05 05:15:04;;;;;;;6.88;2.63;;;24.70;46.00;;;;;;4989452;28;44862;-64
2023/07/05 05:17:29;;;;;;;7.65;2.30;;;24.70;46.40;;;;;;4983259;28;45434;-67
2023/07/05 05:19:55;;;;;;;3.83;2.22;;;24.70;46.50;;;;;;4990818;28;44651;-67
2023/07/05 05:22:20;;;;;;;4.00;2.30;;;24.70;47.00;;;;;;4971069;28;46158;-67
2023/07/05 05:24:46;;;;;;;4.50;2.30;;;24.70;47.40;;;;;;4974583;28;45995;-66
2023/07/05 05:27:11;;;;;;;2.95;2.10;;;24.60;47.60;;;;;;4982193;28;45486;-67
2023/07/05 05:29:37;;;;;;;4.63;1.85;;;24.60;47.90;;;;;;4987103;28;44960;-66
2023/07/05 05:32:03;;;;;;;7.57;2.47;;;24.60;48.20;;;;;;4982635;28;45443;-66
2023/07/05 05:34:28;;;;;;;3.30;2.17;;;24.50;48.40;;;;;;4990297;28;44741;-66
2023/07/05 05:36:54;;;;;;;4.97;2.28;;;24.50;48.60;;;;;;4985931;28;45778;-66
2023/07/05 05:39:20;;;;;;;2.85;1.98;;;24.50;48.80;;;;;;4993710;28;45557;-67
2023/07/05 05:41:46;;;;;;;4.47;2.80;;;24.50;49.00;;;;;;4987488;28;45432;-63
2023/07/05 05:44:11;;;;;;;2.83;2.13;;;24.50;49.20;;;;;;4942907;28;44977;-66
2023/07/05 05:46:37;;;;;;;3.28;2.05;;;24.50;49.30;;;;;;4983341;28;45489;-66
2023/07/05 05:49:02;;;;;;;7.28;2.22;;;24.50;49.60;;;;;;4977949;28;45676;-66
2023/07/05 05:51:28;;;;;;;5.97;2.33;;;24.50;49.60;;;;;;4991691;28;46004;-66
2023/07/05 05:53:53;;;;;;;6.68;2.20;;;24.50;49.70;;;;;;4981572;28;45388;-66
2023/07/05 05:56:19;;;;;;;4.30;2.35;;;24.50;49.50;;;;;;4987762;28;45609;-65
2023/07/05 05:58:45;;;;;;;3.97;2.20;;;24.60;49.70;;;;;;4997743;28;44807;-66
2023/07/05 06:01:12;;;;;;;5.00;2.75;;;24.60;49.60;;;;;;4988348;28;46967;-66
2023/07/05 06:03:37;;;;;;;4.53;2.40;;;24.60;49.70;;;;;;4993861;28;45330;-67
2023/07/05 06:06:03;;;;;;;4.60;2.30;;;24.60;49.80;;;;;;4973114;28;45283;-67
2023/07/05 06:08:29;;;;;;;3.90;2.35;;;24.60;49.70;;;;;;4993088;28;45491;-67
2023/07/05 06:11:02;;;;;;;5.50;2.30;;;24.70;49.70;;;;;;4955980;28;47133;-66
2023/07/05 06:13:28;;;;;;;5.22;2.75;;;24.70;49.90;;;;;;4993334;28;45214;-67
2023/07/05 06:15:55;;;;;;;4.18;2.95;;;24.70;49.60;;;;;;4965645;28;45483;-68
2023/07/05 06:18:20;;;;;;;6.45;3.13;;;24.70;49.70;;;;;;4971175;28;45801;-66
2023/07/05 06:20:46;;;;;;;4.78;3.78;;;24.70;49.60;;;;;;4968230;28;46606;-67
2023/07/05 06:23:12;;;;;;;4.57;3.35;;;24.80;49.70;;;;;;4971898;28;44888;-66
2023/07/05 06:25:37;;;;;;;4.75;3.35;;;24.70;49.50;;;;;;4988114;28;45196;-66
2023/07/05 06:28:03;;;;;;;4.25;3.10;;;24.80;49.60;;;;;;4990807;28;45317;-66
2023/07/05 06:30:28;;;;;;;5.30;3.35;;;24.80;49.60;;;;;;4966896;28;45347;-66
2023/07/05 06:32:55;;;;;;;4.63;2.92;;;24.80;49.70;;;;;;4993873;28;44966;-66
2023/07/05 06:35:20;;;;;;;7.10;2.80;;;24.80;49.60;;;;;;4969595;28;45038;-67
2023/07/05 06:37:46;;;;;;;3.28;2.75;;;24.80;49.70;;;;;;4971198;28;45451;-66
2023/07/05 06:40:12;;;;;;;4.07;2.50;;;24.80;49.60;;;;;;4988050;28;46072;-67
2023/07/05 06:42:38;;;;;;;2.90;2.47;;;24.90;49.70;;;;;;4975921;28;45660;-67
2023/07/05 06:45:04;;;;;;;6.28;2.67;;;24.90;49.80;;;;;;4987921;28;45441;-65
2023/07/05 06:47:29;;;;;;;3.47;2.35;;;24.90;49.80;;;;;;4936499;28;45296;-69
2023/07/05 06:49:55;;;;;;;8.15;2.60;;;24.90;49.80;;;;;;4979935;28;45220;-66
2023/07/05 06:52:20;;;;;;;3.80;2.28;;;24.90;49.90;;;;;;4985672;28;45066;-66
2023/07/05 06:54:46;;;;;;;5.25;2.38;;;24.90;50.00;;;;;;4990925;28;45294;-65
2023/07/05 06:57:11;;;;;;;4.13;2.47;;;24.90;50.00;;;;;;4984459;28;46363;-68
2023/07/05 06:59:37;;;;;;;2.85;1.95;;;24.90;50.10;;;;;;4976933;28;47210;-67
2023/07/05 07:02:03;;;;;;;3.42;2.50;;;24.90;50.00;;;;;;4968571;28;45523;-67
2023/07/05 07:04:29;;;;;;;3.58;2.05;;;24.90;50.00;;;;;;4973462;28;45354;-65
2023/07/05 07:06:55;;;;;;;3.45;2.03;;;24.90;50.00;;;;;;4984079;28;45635;-67
2023/07/05 07:09:20;;;;;;;4.10;2.22;;;24.90;50.00;;;;;;4991576;28;45454;-66
2023/07/05 07:11:46;;;;;;;4.05;2.00;;;24.90;50.10;;;;;;4984145;28;45475;-68
2023/07/05 07:14:11;;;;;;;5.03;1.98;;;24.90;50.10;;;;;;4988689;28;45402;-67
2023/07/05 07:16:37;;;;;;;5.22;2.10;;;24.90;50.10;;;;;;4976994;28;45524;-66
2023/07/05 07:19:02;;;;;;;2.58;1.63;;;24.90;50.30;;;;;;4989639;28;45199;-66
2023/07/05 07:21:29;;;;;;;3.78;1.83;;;24.90;50.30;;;;;;4967335;28;45109;-65
2023/07/05 07:23:54;;;;;;;2.65;1.60;;;24.90;50.50;;;;;;4991690;28;45275;-67
2023/07/05 07:26:21;;;;;;;2.03;1.48;;;24.90;50.50;;;;;;4980274;28;46372;-66
2023/07/05 07:28:52;;;;;;;3.92;1.70;;;24.90;50.60;;;;;;4990987;28;45149;-67
2023/07/05 07:31:19;;;;;;;3.65;1.73;;;24.80;50.70;;;;;;4966904;28;45403;-65
2023/07/05 07:33:45;;;;;;;1.95;1.60;;;24.80;51.00;;;;;;4972468;28;44874;-67
2023/07/05 07:36:12;;;;;;;3.08;1.60;;;24.80;50.90;;;;;;4984857;28;45469;-67
2023/07/05 07:38:38;;;;;;;1.83;1.55;;;24.90;51.00;;;;;;4957358;28;47452;-66
2023/07/05 07:41:04;;;;;;;2.30;1.42;;;24.90;51.00;;;;;;4988554;28;45213;-66
2023/07/05 07:43:29;;;;;;;3.10;1.67;;;24.90;50.90;;;;;;4992908;28;45064;-66
2023/07/05 07:45:55;;;;;;;2.22;1.50;;;24.80;51.00;;;;;;4967542;28;45095;-67
2023/07/05 07:48:20;;;;;;;4.20;1.33;;;24.80;51.00;;;;;;4974889;28;45453;-67
2023/07/05 07:50:49;;;;;;;2.15;1.52;;;24.80;51.20;;;;;;4989054;28;45942;-66
2023/07/05 07:53:15;;;;;;;5.63;1.58;;;24.90;51.30;;;;;;4998399;28;45503;-66
2023/07/05 07:55:40;;;;;;;1.48;1.27;;;24.90;51.10;;;;;;4985462;28;45584;-66
2023/07/05 07:58:06;;;;;;;1.83;1.45;;;24.80;51.20;;;;;;4974760;28;47344;-67
2023/07/05 08:00:32;;;;;;;2.97;1.38;;;24.80;51.20;;;;;;4986274;28;45381;-67
2023/07/05 08:02:57;;;;;;;2.40;1.40;;;24.80;51.20;;;;;;4979309;28;45637;-67
2023/07/05 08:05:23;;;;;;;2.63;1.58;;;24.80;51.40;;;;;;4987854;28;44784;-68
2023/07/05 08:07:49;;;;;;;5.35;1.75;;;24.80;51.80;;;;;;4978717;28;45090;-67
2023/07/05 08:10:15;;;;;;;2.65;1.42;;;24.80;52.20;;;;;;4986813;28;44653;-67
2023/07/05 08:12:40;;;;;;;3.58;1.48;;;24.70;52.40;;;;;;4980194;28;45554;-66
2023/07/05 08:15:06;;;;;;;2.67;1.60;;;24.70;52.90;;;;;;4991673;28;45013;-66
2023/07/05 08:17:33;;;;;;;2.13;1.35;;;24.60;53.10;;;;;;4969781;28;46678;-66
2023/07/05 08:19:58;;;;;;;1.95;1.42;;;24.60;53.30;;;;;;4995923;28;45272;-67
2023/07/05 08:22:24;;;;;;;2.58;1.38;;;24.60;53.30;;;;;;4988600;28;45367;-66
2023/07/05 08:24:50;;;;;;;2.58;1.20;;;24.60;53.40;;;;;;4993763;28;44829;-67
2023/07/05 08:27:16;;;;;;;3.10;1.20;;;24.50;53.20;;;;;;4980717;28;46109;-66
2023/07/05 08:29:41;;;;;;;3.05;1.20;;;24.50;53.10;;;;;;4974849;28;45115;-65
2023/07/05 08:32:08;;;;;;;2.45;1.00;;;24.40;53.20;;;;;;4981886;28;45304;-66
2023/07/05 08:34:35;;;;;;;1.83;1.02;;;24.40;53.10;;;;;;4971521;28;45510;-67
2023/07/05 08:37:01;;;;;;;3.83;1.10;;;24.40;53.70;;;;;;4975033;28;46891;-68
2023/07/05 08:39:27;;;;;;;2.95;0.77;;;24.40;53.00;;;;;;4977748;28;45472;-66
2023/07/05 08:42:00;;;;;;;3.55;1.17;;;24.40;52.90;;;;;;4989379;28;45875;-67
2023/07/05 08:44:35;;;;;;;1.45;0.60;;;24.40;53.10;;;;;;4978943;28;45029;-66
2023/07/05 08:47:07;;;;;;;3.05;0.90;;;24.40;52.70;;;;;;4982336;28;45283;-67
2023/07/05 08:49:59;;;;;;;2.65;0.80;;;24.40;53.10;;;;;;4991047;28;45306;-67
2023/07/05 08:52:33;;;;;;;2.05;0.80;;;24.30;53.00;;;;;;4973015;28;45108;-66
2023/07/05 08:55:02;;;;;;;1.35;0.70;;;24.30;53.00;;;;;;4976654;28;45200;-67
2023/07/05 08:57:31;;;;;;;2.72;0.80;;;24.30;52.50;;;;;;4958587;28;46660;-67
2023/07/05 08:59:59;;;;;;;1.27;0.75;;;24.40;52.50;;;;;;4993957;28;45297;-67
2023/07/05 09:02:25;;;;;;;2.10;0.80;;;24.40;52.40;;;;;;4954383;28;44943;-67
2023/07/05 09:04:53;;;;;;;4.07;0.80;;;24.40;52.30;;;;;;4974117;28;45307;-66
2023/07/05 09:07:45;;;;;;;3.15;0.90;;;24.40;52.10;;;;;;4968359;28;45831;-66
2023/07/05 09:10:19;;;;;;;3.87;0.73;;;24.40;53.30;;;;;;4986772;28;46185;-65
2023/07/05 09:13:06;;;;;;;2.85;0.90;;;24.40;52.20;;;;;;4957832;28;45511;-67
2023/07/05 09:15:41;;;;;;;2.28;0.75;;;24.50;52.10;;;;;;4984318;28;45625;-67
2023/07/05 09:18:35;;;;;;;1.63;0.57;;;24.40;52.30;;;;;;4962793;28;45302;-66
2023/07/05 09:21:16;;;;;;;2.53;0.95;;;24.50;52.70;;;;;;4984931;28;45552;-67
2023/07/05 09:23:51;;;;;;;1.98;0.85;;;24.40;52.40;;;;;;4974314;28;45310;-67
2023/07/05 09:26:22;;;;;;;6.07;0.70;;;24.50;52.30;;;;;;4972898;28;45309;-67
2023/07/05 09:28:58;;;;;;;0.90;0.50;;;24.50;52.40;;;;;;4993875;28;46037;-68
2023/07/05 09:31:24;;;;;;;2.78;0.60;;;24.50;52.10;;;;;;4948469;28;45654;-67
2023/07/05 09:34:07;;;;;;;1.42;0.70;;;24.50;52.00;;;;;;4988521;28;45653;-66
2023/07/05 09:36:32;;;;;;;;;;;24.50;52.10;;;;;;4958276;28;46454;-67
2023/07/05 09:39:02;;;;;;;3.15;0.90;;;24.50;53.00;;;;;;4977403;28;45929;-67
2023/07/05 09:41:41;;;;;;;3.67;0.90;;;24.50;52.20;;;;;;4963656;28;45617;-67
2023/07/05 09:44:06;;;;;;;1.88;0.70;;;24.50;53.00;;;;;;4977429;28;45548;-67
2023/07/05 09:46:33;;;;;;;1.13;0.60;;;24.50;52.50;;;;;;4985054;28;45994;-66
2023/07/05 09:48:59;;;;;;;3.50;0.60;;;24.50;52.70;;;;;;4973671;28;45557;-65
2023/07/05 09:51:25;;;;;;;2.58;0.88;;;24.60;52.90;;;;;;4970734;28;44672;-66
2023/07/05 09:54:02;;;;;;;4.10;0.90;;;24.60;53.00;;;;;;4946017;28;45412;-67
2023/07/05 09:56:28;;;;;;;5.15;0.95;;;24.60;53.90;;;;;;4966250;28;45526;-68
2023/07/05 09:59:13;;;;;;;2.28;0.70;;;24.60;53.20;;;;;;4989684;28;45221;-66
2023/07/05 10:01:45;;;;;;;1.80;0.55;;;24.60;54.10;;;;;;4968939;28;46562;-68
2023/07/05 10:04:10;;;;;;;2.00;0.70;;;24.60;53.90;;;;;;4974423;28;45179;-68
2023/07/05 10:06:40;;;;;;;1.15;0.77;;;24.60;53.70;;;;;;4968704;28;45698;-67
2023/07/05 10:09:13;;;;;;;1.27;0.90;;;24.60;53.80;;;;;;4985651;28;46554;-67
2023/07/05 10:11:47;;;;;;;1.42;0.70;;;24.70;54.20;;;;;;4979387;28;46212;-66
2023/07/05 10:14:17;;;;;;;2.20;0.70;;;24.70;54.10;;;;;;4966307;28;45219;-68
2023/07/05 10:16:50;;;;;;;0.98;0.55;;;24.70;53.90;;;;;;4980627;28;45266;-68
2023/07/05 10:19:22;;;;;;;;;;;24.70;53.80;;;;;;4980066;28;45199;-67
2023/07/05 10:21:48;;;;;;;2.78;0.75;;;24.70;54.70;;;;;;4985214;28;45176;-67
2023/07/05 10:24:16;;;;;;;1.40;0.73;;;24.70;53.20;;;;;;4967771;28;45658;-68
2023/07/05 10:26:41;;;;;;;2.45;0.95;;;24.70;53.20;;;;;;4944220;28;45151;-67
2023/07/05 10:29:10;;;;;;;2.38;0.90;;;24.70;53.20;;;;;;4966583;28;45481;-68
2023/07/05 10:31:36;;;;;;;2.10;1.05;;;24.70;53.50;;;;;;4952443;28;45520;-68
2023/07/05 10:34:15;;;;;;;1.67;0.85;;;24.70;53.00;;;;;;4985428;28;45306;-66
2023/07/05 10:36:44;;;;;;;2.15;1.10;;;24.70;52.70;;;;;;4972395;28;45523;-67
2023/07/05 10:39:10;;;;;;;1.77;1.20;;;24.70;51.90;;;;;;4990268;28;45476;-69
2023/07/05 10:41:36;;;;;;;1.33;1.23;;;24.70;51.50;;;;;;4962800;28;45293;-69
2023/07/05 10:44:27;;;;;;;4.10;1.35;;;24.70;51.10;;;;;;4967917;28;44691;-67
2023/07/05 10:46:54;;;;;;;5.60;2.20;;;24.70;50.50;;;;;;4966660;28;45252;-69
2023/07/05 10:49:19;;;;;;;2.38;1.92;;;24.70;50.00;;;;;;4960064;28;45845;-67
2023/07/05 10:52:00;;;;;;;2.28;1.95;;;24.80;49.50;;;;;;4960829;28;46055;-68
2023/07/05 10:54:42;;;;;;;2.95;2.25;;;24.80;48.50;;;;;;4980632;28;45531;-68
2023/07/05 10:57:19;;;;;;;2.67;2.30;;;24.80;48.20;;;;;;4949889;28;47332;-68
2023/07/05 10:59:55;;;;;;;3.80;2.83;;;24.80;47.70;;;;;;4978004;28;45311;-69
2023/07/05 11:02:29;;;;;;;5.13;2.30;;;24.80;47.30;;;;;;4942308;28;45323;-68
2023/07/05 11:04:54;;;;;;;3.20;2.22;;;24.80;47.30;;;;;;4965561;28;45669;-68
2023/07/05 11:07:20;;;;;;;3.28;2.67;;;24.80;47.20;;;;;;4976965;28;45506;-68
2023/07/05 11:09:46;;;;;;;3.05;2.40;;;24.80;47.00;;;;;;4979167;28;47010;-67
2023/07/05 11:12:20;;;;;;;3.08;2.50;;;24.80;46.80;;;;;;4975332;28;45546;-67
2023/07/05 11:14:46;;;;;;;3.95;2.85;;;24.90;46.40;;;;;;4973528;28;45337;-67
2023/07/05 11:17:22;;;;;;;3.95;2.50;;;24.90;46.40;;;;;;4960568;28;45785;-67
2023/07/05 11:19:47;;;;;;;3.53;2.33;;;25.00;46.00;;;;;;4972769;28;46116;-67
2023/07/05 11:22:39;;;;;;;3.30;2.40;;;25.00;46.20;;;;;;4966478;28;45770;-67
2023/07/05 11:25:07;;;;;;;3.08;2.47;;;25.00;45.00;;;;;;4984057;28;45285;-69
2023/07/05 11:27:33;;;;;;;4.78;2.60;;;25.00;45.50;;;;;;4986166;28;45968;-69
2023/07/05 11:29:59;;;;;;;3.55;2.55;;;25.00;45.10;;;;;;4998707;28;46165;-68
2023/07/05 11:32:47;;;;;;;4.07;2.15;;;25.10;44.70;;;;;;4970323;28;44696;-67
2023/07/05 11:35:12;;;;;;;3.40;2.28;;;25.10;43.70;;;;;;4983930;28;45462;-68
2023/07/05 11:37:39;;;;;;;2.90;2.05;;;25.10;43.20;;;;;;4988087;28;45444;-68
2023/07/05 11:40:30;;;;;;;3.70;2.20;;;25.10;42.30;;;;;;4967507;28;45680;-67
2023/07/05 11:42:55;;;;;;;3.00;2.47;;;25.10;41.30;;;;;;4989235;28;45315;-68
2023/07/05 11:45:21;;;;;;;3.05;2.15;;;25.10;40.90;;;;;;4963770;28;45774;-67
2023/07/05 11:47:48;;;;;;;2.65;2.10;;;25.10;40.60;;;;;;4992071;28;45598;-67
2023/07/05 11:50:14;;;;;;;2.90;2.30;;;25.10;40.50;;;;;;4996403;28;45360;-68
2023/07/05 11:52:46;;;;;;;5.68;2.33;;;25.10;40.40;;;;;;4998364;28;45572;-67
2023/07/05 11:55:19;;;;;;;2.67;2.05;;;25.10;39.90;;;;;;4979619;28;45966;-67
2023/07/05 11:58:00;;;;;;;2.60;1.67;;;25.10;39.70;;;;;;4985670;28;45676;-68
2023/07/05 12:00:34;;;;;;;2.65;2.15;;;25.20;39.50;;;;;;4963699;28;47062;-67
2023/07/05 12:03:17;;;;;;;2.80;2.00;;;25.20;39.60;;;;;;4983224;28;45283;-68
2023/07/05 12:05:43;;;;;;;2.73;2.37;;;25.30;39.30;;;;;;4977092;28;45391;-69
2023/07/05 12:08:26;;;;;;;2.97;2.38;;;25.30;40.20;;;;;;4962822;28;44705;-68
2023/07/05 12:10:52;;;;;;;;;;;25.30;40.20;;;;;;4966036;28;45117;-68
2023/07/05 12:13:19;;;;;;;2.22;1.70;;;25.30;38.80;;;;;;4997734;28;44704;-68
2023/07/05 12:15:45;;;;;;;2.45;1.73;;;25.40;39.80;;;;;;4964518;28;45297;-68
2023/07/05 12:18:18;;;;;;;3.00;2.15;;;25.40;39.50;;;;;;4982652;28;45671;-68
2023/07/05 12:20:45;;;;;;;2.83;1.92;;;25.40;39.00;;;;;;4980051;28;45918;-68
2023/07/05 12:23:16;;;;;;;2.88;2.20;;;25.40;38.80;;;;;;4986485;28;45484;-68
2023/07/05 12:25:55;;;;;;;2.05;1.65;;;25.40;38.50;;;;;;4931076;28;46199;-68
2023/07/05 12:28:26;;;;;;;3.22;1.88;;;25.40;38.20;;;;;;4967819;28;45281;-68
2023/07/05 12:30:56;;;;;;;2.30;1.80;;;25.50;38.30;;;;;;4960166;28;46500;-69
2023/07/05 12:33:22;;;;;;;3.30;2.10;;;25.50;38.10;;;;;;4992929;28;45284;-67
2023/07/05 12:36:12;;;;;;;2.15;1.75;;;25.50;38.20;;;;;;4977273;28;45540;-69
2023/07/05 12:38:42;;;;;;;3.78;1.77;;;25.60;37.00;;;;;;4990343;28;45590;-67
2023/07/05 12:41:15;;;;;;;2.55;1.80;;;25.60;37.60;;;;;;4967439;28;47333;-66
2023/07/05 12:43:40;;;;;;;2.45;1.73;;;25.60;36.80;;;;;;4993513;28;45837;-67
2023/07/05 12:46:08;;;;;;;4.35;1.88;;;25.60;37.20;;;;;;4983923;28;44799;-69
2023/07/05 12:48:33;;;;;;;3.58;1.90;;;25.70;37.10;;;;;;4995201;28;45225;-67
2023/07/05 12:51:03;;;;;;;3.00;1.70;;;25.70;36.80;;;;;;4986567;28;44922;-67
2023/07/05 12:53:29;;;;;;;3.60;2.08;;;25.70;36.70;;;;;;4986016;28;44705;-67
2023/07/05 12:55:57;;;;;;;2.45;2.05;;;25.70;36.80;;;;;;4986941;28;45342;-67
2023/07/05 12:58:23;;;;;;;4.55;2.00;;;25.80;36.80;;;;;;4983657;28;45330;-67
2023/07/05 13:00:50;;;;;;;4.10;1.85;;;25.70;36.90;;;;;;4975087;28;46402;-68
2023/07/05 13:03:16;;;;;;;4.93;1.95;;;25.80;37.00;;;;;;4973013;28;45422;-68
2023/07/05 13:05:42;;;;;;;2.38;1.95;;;25.80;36.90;;;;;;4973490;28;45041;-68
2023/07/05 13:08:08;;;;;;;2.20;1.88;;;25.80;36.90;;;;;;4953201;28;45310;-68
2023/07/05 13:10:37;;;;;;;2.47;1.63;;;25.80;36.90;;;;;;4980391;28;45304;-66
2023/07/05 13:13:39;;;;;;;2.67;1.88;;;25.90;36.70;;;;;;4955290;28;45203;-67
2023/07/05 13:16:26;;;;;;;2.90;2.03;;;25.90;35.50;;;;;;4912708;28;44750;-67
2023/07/05 13:19:04;;;;;;;5.75;2.30;;;25.90;35.90;;;;;;4985000;28;45309;-67
2023/07/05 13:21:44;;;;;;;3.05;1.92;;;25.90;36.10;;;;;;4979253;28;47038;-67
2023/07/05 13:24:25;;;;;;;2.67;2.08;;;25.90;35.80;;;;;;4985029;28;45094;-67
2023/07/05 13:26:51;;;;;;;3.25;2.20;;;25.90;36.10;;;;;;4976393;28;45355;-67
2023/07/05 13:29:32;;;;;;;2.50;2.08;;;25.90;36.70;;;;;;4993400;28;45495;-67
2023/07/05 13:31:58;;;;;;;2.78;1.90;;;26.00;36.50;;;;;;4984329;28;46115;-67
2023/07/05 13:34:24;;;;;;;2.75;1.98;;;26.00;36.60;;;;;;4994663;28;45264;-68
2023/07/05 13:36:54;;;;;;;2.97;1.90;;;26.00;36.60;;;;;;4977929;28;45366;-68
2023/07/05 13:39:19;;;;;;;2.55;1.90;;;26.00;36.50;;;;;;5002082;28;46441;-66
2023/07/05 13:41:45;;;;;;;3.08;2.20;;;26.10;36.30;;;;;;4978052;28;46274;-68
2023/07/05 13:44:15;;;;;;;2.03;1.83;;;26.00;36.00;;;;;;4986944;28;45531;-67
2023/07/05 13:46:40;;;;;;;6.65;2.00;;;26.00;36.40;;;;;;4983842;28;45062;-67
2023/07/05 13:49:09;;;;;;;2.15;1.80;;;26.00;35.60;;;;;;4992621;28;45324;-67
2023/07/05 13:51:34;;;;;;;2.65;1.63;;;26.10;35.60;;;;;;4977787;28;45663;-66
2023/07/05 13:54:00;;;;;;;2.90;1.90;;;26.10;36.10;;;;;;4985510;28;45658;-66
2023/07/05 13:56:26;;;;;;;2.50;1.92;;;26.10;35.40;;;;;;4986397;28;45530;-68
2023/07/05 13:58:53;;;;;;;3.53;2.10;;;26.20;35.30;;;;;;4960692;28;46513;-68
2023/07/05 14:01:18;;;;;;;4.88;2.30;;;26.40;34.50;;;;;;4938068;28;45842;-68
2023/07/05 14:03:47;;;;;;;3.95;2.45;;;26.50;34.00;;;;;;4966551;28;45497;-67
2023/07/05 14:06:16;;;;;;;2.85;2.20;;;26.50;33.60;;;;;;4982352;28;45609;-68
2023/07/05 14:08:42;;;;;;;4.50;2.53;;;26.70;33.40;;;;;;4985258;28;44762;-67
2023/07/05 14:11:27;;;;;;;4.47;2.45;;;26.80;33.40;;;;;;4977745;28;45546;-69
2023/07/05 14:13:53;;;;;;;3.30;2.05;;;26.90;33.10;;;;;;4972413;28;46448;-66
2023/07/05 14:16:21;;;;;;;3.50;2.40;;;26.90;32.80;;;;;;4983207;28;45408;-68
2023/07/05 14:18:47;;;;;;;3.45;2.22;;;27.00;32.70;;;;;;4985459;28;46000;-66
2023/07/05 14:21:33;;;;;;;3.33;2.42;;;27.00;32.50;;;;;;4989746;28;45694;-67
2023/07/05 14:24:01;;;;;;;4.47;2.20;;;27.00;32.50;;;;;;4978563;28;45199;-68
2023/07/05 14:26:30;;;;;;;3.97;2.30;;;27.10;32.60;;;;;;4986474;28;45636;-67
2023/07/05 14:28:56;;;;;;;4.97;2.50;;;27.10;32.60;;;;;;4993379;28;45580;-67
2023/07/05 14:31:21;;;;;;;3.72;2.47;;;27.20;32.80;;;;;;4969650;28;45947;-68
2023/07/05 14:33:47;;;;;;;3.63;2.40;;;27.20;32.80;;;;;;4999092;28;45253;-66
2023/07/05 14:36:13;;;;;;;5.17;2.47;;;27.30;32.70;;;;;;4986308;28;45199;-66
2023/07/05 14:38:39;;;;;;;3.13;2.38;;;27.30;32.70;;;;;;4996729;28;44875;-67
2023/07/05 14:41:05;;;;;;;5.00;2.20;;;27.30;32.70;;;;;;4985763;28;46950;-67
2023/07/05 14:43:31;;;;;;;4.00;1.90;;;27.30;32.80;;;;;;4964675;28;45300;-69
2023/07/05 14:45:56;;;;;;;2.80;2.30;;;27.40;32.70;;;;;;4984656;28;45228;-67
2023/07/05 14:48:22;;;;;;;2.93;2.13;;;27.40;32.50;;;;;;4987675;28;45725;-65
2023/07/05 14:50:47;;;;;;;3.77;2.20;;;27.40;32.40;;;;;;4983214;28;45252;-66
2023/07/05 14:53:16;;;;;;;4.57;2.20;;;27.40;32.30;;;;;;4964508;28;44683;-66
2023/07/05 14:55:41;;;;;;;4.07;2.47;;;27.50;32.30;;;;;;4964015;28;45564;-66
2023/07/05 14:58:14;;;;;;;4.83;2.17;;;27.50;32.20;;;;;;4991611;28;45300;-65
2023/07/05 15:00:39;;;;;;;4.15;2.55;;;27.50;32.10;;;;;;4979328;28;46007;-65
2023/07/05 15:03:11;;;;;;;3.10;2.10;;;27.50;31.90;;;;;;4974588;28;44889;-66
2023/07/05 15:05:36;;;;;;;2.78;2.30;;;27.50;31.90;;;;;;4955471;28;45574;-66
2023/07/05 15:08:02;;;;;;;4.30;2.10;;;27.50;31.50;;;;;;4982451;28;45397;-65
2023/07/05 15:10:28;;;;;;;2.85;2.10;;;27.60;31.30;;;;;;4955309;28;46028;-66
2023/07/05 15:12:53;;;;;;;3.95;2.15;;;27.60;31.20;;;;;;4988758;28;44970;-66
2023/07/05 15:15:24;;;;;;;5.00;2.20;;;27.60;30.90;;;;;;4975323;28;44797;-65
2023/07/05 15:17:50;;;;;;;2.58;1.90;;;27.60;30.50;;;;;;4986457;28;45436;-65
2023/07/05 15:20:17;;;;;;;4.90;1.80;;;27.60;30.30;;;;;;4984637;28;45680;-67
2023/07/05 15:22:46;;;;;;;2.58;2.10;;;27.60;30.10;;;;;;4963634;28;45429;-66
2023/07/05 15:25:12;;;;;;;2.25;2.05;;;27.60;30.00;;;;;;4974829;28;45389;-66
2023/07/05 15:27:39;;;;;;;4.32;2.08;;;27.60;30.00;;;;;;4960980;28;45530;-65
2023/07/05 15:30:05;;;;;;;4.53;2.00;;;27.60;30.00;;;;;;4992110;28;46081;-64
2023/07/05 15:32:35;;;;;;;2.22;1.90;;;27.60;30.00;;;;;;4923129;28;45477;-65
2023/07/05 15:35:02;;;;;;;2.50;2.10;;;27.60;30.00;;;;;;4981714;28;45631;-65
2023/07/05 15:37:28;;;;;;;3.00;2.03;;;27.60;30.00;;;;;;4957599;28;46233;-65
2023/07/05 15:39:53;;;;;;;2.50;2.00;;;27.60;30.00;;;;;;4980778;28;45464;-66
2023/07/05 15:42:20;;;;;;;2.43;1.87;;;27.60;29.90;;;;;;4981806;28;45846;-65
2023/07/05 15:44:46;;;;;;;2.15;1.95;;;27.60;30.00;;;;;;4996826;28;45243;-65
2023/07/05 15:47:12;;;;;;;4.35;2.10;;;27.60;29.90;;;;;;4978039;28;46209;-66
2023/07/05 15:49:37;;;;;;;3.22;1.75;;;27.60;29.80;;;;;;4979058;28;45273;-66
2023/07/05 15:52:04;;;;;;;3.65;1.65;;;27.60;29.70;;;;;;4983127;28;45510;-66
2023/07/05 15:54:30;;;;;;;1.85;1.75;;;27.60;29.70;;;;;;4980875;28;45326;-65